createdAt,value
2023-04-29T21:00:10.524Z,61.60
2023-04-29T21:04:13.719Z,61.65
2023-04-29T21:08:17.055Z,60.95
2023-04-29T21:12:20.059Z,61.40
2023-04-29T21:16:26.384Z,60.27
2023-04-29T21:20:30.604Z,57.95
2023-04-29T21:24:33.731Z,58.20
2023-04-29T21:28:36.766Z,58.25
2023-04-29T21:32:41.235Z,58.20
2023-04-29T21:36:44.217Z,57.03
2023-04-29T21:40:49.630Z,56.77
2023-04-29T21:44:52.733Z,57.25
2023-04-29T21:48:59.059Z,58.03
2023-04-29T21:53:02.030Z,59.15
2023-04-29T21:57:05.357Z,58.00
2023-04-29T22:01:26.285Z,57.80
2023-04-29T22:05:31.359Z,58.23
2023-04-29T22:09:34.392Z,58.08
2023-04-29T22:13:37.393Z,58.20
2023-04-29T22:17:40.694Z,59.40
2023-04-29T22:21:45.079Z,58.67
2023-04-29T22:25:48.094Z,58.45
2023-04-29T22:29:51.058Z,59.30
2023-04-29T22:33:54.193Z,59.20
2023-04-29T22:37:58.544Z,56.90
2023-04-29T22:42:02.942Z,58.42
2023-04-29T22:46:06.227Z,57.53
2023-04-29T22:50:10.225Z,58.10
2023-04-29T22:54:14.649Z,57.80
2023-04-29T22:58:17.645Z,58.30
2023-04-29T23:02:20.631Z,58.25
2023-04-29T23:06:23.931Z,59.55
2023-04-29T23:10:28.319Z,57.80
2023-04-29T23:14:31.456Z,58.30
2023-04-29T23:18:34.450Z,57.10
2023-04-29T23:22:37.441Z,57.00
2023-04-29T23:26:41.785Z,56.80
2023-04-29T23:38:51.074Z,56.80
2023-04-29T23:42:55.391Z,56.75
2023-04-29T23:46:58.374Z,56.45
2023-04-29T23:51:01.351Z,56.47
2023-04-29T23:55:04.845Z,55.93
2023-04-29T23:59:09.255Z,56.05
